createdAt,value
2023-04-07T00:00:28.516Z,9.08
2023-04-07T00:02:55.041Z,9.09
2023-04-07T00:05:21.599Z,9.12
2023-04-07T00:07:55.861Z,9.11
2023-04-07T00:10:24.420Z,9.13
2023-04-07T00:12:50.855Z,9.16
2023-04-07T00:15:17.487Z,9.16
2023-04-07T00:17:43.976Z,9.17
2023-04-07T00:20:10.874Z,9.18
2023-04-07T00:22:37.615Z,9.18
2023-04-07T00:25:04.428Z,9.19
2023-04-07T00:27:30.976Z,9.19
2023-04-07T00:29:57.494Z,9.22
2023-04-07T00:32:24.055Z,9.20
2023-04-07T00:34:50.602Z,9.18
2023-04-07T00:37:17.135Z,9.19
2023-04-07T00:39:43.524Z,9.14
2023-04-07T00:42:10.960Z,9.16
2023-04-07T00:44:37.565Z,9.17
2023-04-07T00:47:04.298Z,9.16
2023-04-07T00:49:31.614Z,9.16
2023-04-07T00:51:58.632Z,9.16
2023-04-07T00:54:25.385Z,9.18
2023-04-07T00:56:53.320Z,9.20
2023-04-07T00:59:20.698Z,9.24
2023-04-07T01:02:16.880Z,9.22
2023-04-07T01:04:51.568Z,9.25
2023-04-07T01:07:27.428Z,9.28
2023-04-07T01:09:57.766Z,9.28
2023-04-07T01:12:44.391Z,9.32
2023-04-07T01:15:12.517Z,9.33
2023-04-07T01:17:53.033Z,9.35
2023-04-07T01:20:22.915Z,9.37
2023-04-07T01:22:58.038Z,9.39
2023-04-07T01:26:02.071Z,9.40
2023-04-07T01:28:49.884Z,9.40
2023-04-07T01:31:17.460Z,9.42
2023-04-07T01:33:46.197Z,9.43
2023-04-07T01:36:14.276Z,9.44
2023-04-07T01:38:42.026Z,9.45
2023-04-07T01:41:10.386Z,9.47
2023-04-07T01:43:39.078Z,9.47
2023-04-07T01:46:05.799Z,9.46
2023-04-07T01:48:33.053Z,9.46
2023-04-07T01:51:00.697Z,9.45
2023-04-07T01:53:27.686Z,9.43
2023-04-07T01:55:54.592Z,9.41
2023-04-07T01:58:21.339Z,9.40
2023-04-07T02:00:49.100Z,9.40
2023-04-07T02:03:38.758Z,9.38
2023-04-07T02:06:10.556Z,9.37
2023-04-07T02:08:42.412Z,9.38
2023-04-07T02:11:12.882Z,9.37
2023-04-07T02:13:42.239Z,9.37
2023-04-07T02:16:09.594Z,9.38
2023-04-07T02:18:37.928Z,9.38
2023-04-07T02:21:05.823Z,9.40
2023-04-07T02:23:35.909Z,9.40
2023-04-07T02:26:02.313Z,9.39
2023-04-07T02:28:28.814Z,9.39
2023-04-07T02:30:55.188Z,9.39
2023-04-07T02:33:21.591Z,9.39
2023-04-07T02:35:48.020Z,9.40
2023-04-07T02:38:14.435Z,9.39
2023-04-07T02:40:41.084Z,9.39
2023-04-07T02:43:07.476Z,9.39
2023-04-07T02:45:33.904Z,9.38
2023-04-07T02:48:00.352Z,9.39
2023-04-07T02:50:26.977Z,9.39
2023-04-07T02:52:53.372Z,9.37
2023-04-07T02:55:19.841Z,9.37
2023-04-07T02:57:46.282Z,9.40
2023-04-07T03:00:13.729Z,9.39
2023-04-07T03:02:40.459Z,9.39
2023-04-07T03:05:07.235Z,9.38
2023-04-07T03:07:33.651Z,9.38
2023-04-07T03:10:00.383Z,9.39
2023-04-07T03:12:27.109Z,9.34
2023-04-07T03:14:53.520Z,9.35
2023-04-07T03:17:20.004Z,9.35
2023-04-07T03:19:47.094Z,9.36
2023-04-07T03:22:13.513Z,9.37
2023-04-07T03:24:41.128Z,9.38
2023-04-07T03:27:07.795Z,9.33
2023-04-07T03:29:34.237Z,9.34
2023-04-07T03:32:00.636Z,9.32
2023-04-07T03:34:27.097Z,9.34
2023-04-07T03:36:53.542Z,9.35
2023-04-07T03:39:19.944Z,9.35
2023-04-07T03:41:46.505Z,9.36
2023-04-07T03:44:12.914Z,9.35
2023-04-07T03:46:39.438Z,9.36
2023-04-07T03:49:06.736Z,9.38
2023-04-07T03:51:34.128Z,9.37
2023-04-07T03:54:00.723Z,9.40
2023-04-07T03:56:28.776Z,9.41
2023-04-07T03:58:55.700Z,9.41
2023-04-07T04:01:22.359Z,9.41
2023-04-07T04:03:49.990Z,9.42
2023-04-07T04:06:16.554Z,9.41
2023-04-07T04:08:43.018Z,9.42
2023-04-07T04:11:09.477Z,9.43
2023-04-07T04:13:36.203Z,9.40
2023-04-07T04:16:02.702Z,9.41
2023-04-07T04:18:29.121Z,9.42
2023-04-07T04:20:55.530Z,9.42
2023-04-07T04:23:21.921Z,9.43
2023-04-07T04:25:48.426Z,9.42
2023-04-07T04:28:14.877Z,9.42
2023-04-07T04:30:41.251Z,9.43
2023-04-07T04:33:07.802Z,9.45
2023-04-07T04:35:34.358Z,9.45
2023-04-07T04:38:00.776Z,9.45
2023-04-07T04:40:27.188Z,9.44
2023-04-07T04:42:53.629Z,9.43
2023-04-07T04:45:20.060Z,9.40
2023-04-07T04:47:46.587Z,9.41
2023-04-07T04:50:13.119Z,9.40
2023-04-07T04:52:39.594Z,9.40
2023-04-07T04:55:06.656Z,9.40
2023-04-07T04:57:35.536Z,9.40
2023-04-07T05:00:04.171Z,9.40
2023-04-07T05:02:30.903Z,9.42
2023-04-07T05:04:57.659Z,9.43
2023-04-07T05:07:24.492Z,9.45
2023-04-07T05:09:51.144Z,9.47
2023-04-07T05:12:17.711Z,9.50
2023-04-07T05:14:44.126Z,9.51
2023-04-07T05:17:10.584Z,9.55
2023-04-07T05:19:37.016Z,9.58
2023-04-07T05:22:03.409Z,9.59
2023-04-07T05:24:29.902Z,9.61
2023-04-07T05:26:57.118Z,9.62
2023-04-07T05:29:23.748Z,9.63
2023-04-07T05:31:50.230Z,9.64
2023-04-07T05:34:16.754Z,9.66
2023-04-07T05:36:43.165Z,9.66
2023-04-07T05:39:09.664Z,9.67
2023-04-07T05:41:36.409Z,9.65
2023-04-07T05:44:02.986Z,9.66
2023-04-07T05:46:29.799Z,9.66
2023-04-07T05:48:56.666Z,9.64
2023-04-07T05:51:23.663Z,9.66
2023-04-07T05:53:50.562Z,9.69
2023-04-07T05:56:17.104Z,9.71
2023-04-07T05:58:43.529Z,9.73
2023-04-07T06:01:09.936Z,9.76
2023-04-07T06:03:36.445Z,9.80
2023-04-07T06:06:03.152Z,9.81
2023-04-07T06:08:29.580Z,9.84
2023-04-07T06:10:56.403Z,9.84
2023-04-07T06:13:22.792Z,9.85
2023-04-07T06:15:49.264Z,9.84
2023-04-07T06:18:15.821Z,9.84
2023-04-07T06:20:42.287Z,9.81
2023-04-07T06:23:08.691Z,9.83
2023-04-07T06:25:35.127Z,9.81
2023-04-07T06:28:01.934Z,9.83
2023-04-07T06:30:28.589Z,9.83
2023-04-07T06:32:55.134Z,9.81
2023-04-07T06:35:21.862Z,9.83
2023-04-07T06:37:48.312Z,9.83
2023-04-07T06:40:14.852Z,9.84
2023-04-07T06:42:41.287Z,9.84
2023-04-07T06:45:08.521Z,9.87
2023-04-07T06:47:35.014Z,9.89
2023-04-07T06:50:01.546Z,9.87
2023-04-07T06:52:27.938Z,9.90
2023-04-07T06:54:54.320Z,9.90
2023-04-07T06:57:20.867Z,9.91
2023-04-07T06:59:47.294Z,9.91
2023-04-07T07:02:13.724Z,9.90
2023-04-07T07:04:40.404Z,9.89
2023-04-07T07:07:06.787Z,9.87
2023-04-07T07:09:33.191Z,9.83
2023-04-07T07:12:03.453Z,9.82
2023-04-07T07:14:30.655Z,9.76
2023-04-07T07:16:57.130Z,9.76
2023-04-07T07:19:23.650Z,9.78
2023-04-07T07:21:50.402Z,9.73
2023-04-07T07:24:16.814Z,9.73
2023-04-07T07:26:44.591Z,9.74
2023-04-07T07:29:11.249Z,9.73
2023-04-07T07:31:37.706Z,9.72
2023-04-07T07:34:04.176Z,9.72
2023-04-07T07:36:32.294Z,9.71
2023-04-07T07:38:58.723Z,9.69
2023-04-07T07:41:26.276Z,9.67
2023-04-07T07:43:53.005Z,9.69
2023-04-07T07:46:19.479Z,9.72
2023-04-07T07:48:46.624Z,9.73
2023-04-07T07:51:13.301Z,9.76
2023-04-07T07:53:39.772Z,9.75
2023-04-07T07:56:06.149Z,9.77
2023-04-07T07:58:32.626Z,9.81
2023-04-07T08:00:59.064Z,9.81
2023-04-07T08:03:25.677Z,9.83
2023-04-07T08:05:52.241Z,9.81
2023-04-07T08:08:18.646Z,9.74
2023-04-07T08:10:45.306Z,9.74
2023-04-07T08:13:11.853Z,9.67
2023-04-07T08:15:39.706Z,9.66
2023-04-07T08:18:07.154Z,9.60
2023-04-07T08:20:34.141Z,9.63
2023-04-07T08:23:02.183Z,9.59
2023-04-07T08:25:29.338Z,9.56
2023-04-07T08:27:56.053Z,9.55
2023-04-07T08:30:22.741Z,9.54
2023-04-07T08:32:49.313Z,9.49
2023-04-07T08:35:15.890Z,9.50
2023-04-07T08:37:44.204Z,9.50
2023-04-07T08:40:11.632Z,9.48
2023-04-07T08:42:42.360Z,9.49
2023-04-07T08:45:10.003Z,9.49
2023-04-07T08:47:37.930Z,9.49
2023-04-07T08:50:07.911Z,9.49
2023-04-07T08:52:52.698Z,9.49
2023-04-07T08:55:19.659Z,9.49
2023-04-07T08:57:46.604Z,9.54
2023-04-07T09:00:14.383Z,9.57
2023-04-07T09:02:47.685Z,9.57
2023-04-07T09:05:17.541Z,9.60
2023-04-07T09:07:44.226Z,9.64
2023-04-07T09:10:11.085Z,9.64
2023-04-07T09:12:38.273Z,9.64
2023-04-07T09:15:07.197Z,9.56
2023-04-07T09:17:33.713Z,9.57
2023-04-07T09:20:01.374Z,9.56
2023-04-07T09:22:45.855Z,9.57
2023-04-07T09:25:16.467Z,9.61
2023-04-07T09:27:58.213Z,9.66
2023-04-07T09:30:24.961Z,9.64
2023-04-07T09:32:51.984Z,9.65
2023-04-07T09:35:18.746Z,9.69
2023-04-07T09:38:00.721Z,9.73
2023-04-07T09:40:27.712Z,9.78
2023-04-07T09:42:54.509Z,9.83
2023-04-07T09:45:33.791Z,9.82
2023-04-07T09:48:05.865Z,9.82
2023-04-07T09:50:35.243Z,9.83
2023-04-07T09:53:03.092Z,9.78
2023-04-07T09:55:30.541Z,9.79
2023-04-07T09:57:57.629Z,9.81
2023-04-07T10:00:25.111Z,9.81
2023-04-07T10:02:53.179Z,9.86
2023-04-07T10:05:22.779Z,9.84
2023-04-07T10:07:49.718Z,9.84
2023-04-07T10:10:16.654Z,9.82
2023-04-07T10:12:43.353Z,9.86
2023-04-07T10:15:15.713Z,9.90
2023-04-07T10:17:48.151Z,9.88
2023-04-07T10:20:17.965Z,9.93
2023-04-07T10:22:46.623Z,10.00
2023-04-07T10:25:16.742Z,10.01
2023-04-07T10:27:51.226Z,10.08
2023-04-07T10:30:31.084Z,10.09
2023-04-07T10:32:58.845Z,10.14
2023-04-07T10:35:26.068Z,10.20
2023-04-07T10:38:07.925Z,10.27
2023-04-07T10:40:36.327Z,10.27
2023-04-07T10:43:03.522Z,10.27
2023-04-07T10:45:51.845Z,10.25
2023-04-07T10:48:19.358Z,10.23
2023-04-07T10:50:47.102Z,10.25
2023-04-07T10:53:16.142Z,10.21
2023-04-07T10:55:47.081Z,10.22
2023-04-07T10:58:22.548Z,10.21
2023-04-07T11:01:01.167Z,10.21
2023-04-07T11:03:29.456Z,10.27
2023-04-07T11:06:06.654Z,10.31
2023-04-07T11:08:41.640Z,10.40
2023-04-07T11:11:11.142Z,10.47
2023-04-07T11:13:41.231Z,10.53
2023-04-07T11:16:08.804Z,10.59
2023-04-07T11:18:37.316Z,10.67
2023-04-07T11:21:06.315Z,10.71
2023-04-07T11:23:43.954Z,10.76
2023-04-07T11:26:12.197Z,10.82
2023-04-07T11:28:55.009Z,10.87
2023-04-07T11:31:40.136Z,10.91
2023-04-07T11:34:07.341Z,10.92
2023-04-07T11:36:38.015Z,10.96
2023-04-07T11:39:04.571Z,10.96
2023-04-07T11:41:33.342Z,10.96
2023-04-07T11:44:06.571Z,10.96
2023-04-07T11:46:33.175Z,10.96
2023-04-07T11:49:15.824Z,10.98
2023-04-07T11:51:44.512Z,11.01
2023-04-07T11:54:11.387Z,11.02
2023-04-07T11:56:46.032Z,11.03
2023-04-07T11:59:24.182Z,11.05
2023-04-07T12:01:53.491Z,11.06
2023-04-07T12:04:21.898Z,11.11
2023-04-07T12:06:49.207Z,11.15
2023-04-07T12:09:38.036Z,11.32
2023-04-07T12:12:07.625Z,11.45
2023-04-07T12:14:35.016Z,11.62
2023-04-07T12:17:03.452Z,11.87
2023-04-07T12:19:33.585Z,12.09
2023-04-07T12:22:00.081Z,12.25
2023-04-07T12:24:27.235Z,12.45
2023-04-07T12:26:53.660Z,12.56
2023-04-07T12:29:20.343Z,12.59
2023-04-07T12:31:49.353Z,12.65
2023-04-07T12:34:17.142Z,12.68
2023-04-07T12:36:44.638Z,12.64
2023-04-07T12:39:11.147Z,12.56
2023-04-07T12:41:38.698Z,12.47
2023-04-07T12:44:05.913Z,12.33
2023-04-07T12:46:32.568Z,12.24
2023-04-07T12:48:59.241Z,12.26
2023-04-07T12:51:27.097Z,12.29
2023-04-07T12:53:54.248Z,12.35
2023-04-07T12:56:22.406Z,12.43
2023-04-07T12:58:48.896Z,12.58
2023-04-07T13:01:15.353Z,12.71
2023-04-07T13:03:42.078Z,12.86
2023-04-07T13:06:08.619Z,12.93
2023-04-07T13:08:35.038Z,12.98
2023-04-07T13:11:01.456Z,13.00
2023-04-07T13:13:28.138Z,12.96
2023-04-07T13:15:54.595Z,12.78
2023-04-07T13:18:21.805Z,12.63
2023-04-07T13:21:02.997Z,12.50
2023-04-07T13:23:42.845Z,12.39
2023-04-07T13:26:09.948Z,12.40
2023-04-07T13:28:36.365Z,12.37
2023-04-07T13:31:02.788Z,12.32
2023-04-07T13:33:29.264Z,12.40
2023-04-07T13:35:55.663Z,12.44
2023-04-07T13:38:22.102Z,12.40
2023-04-07T13:40:49.597Z,12.35
2023-04-07T13:43:17.818Z,12.29
2023-04-07T13:45:44.351Z,12.23
2023-04-07T13:48:10.906Z,12.27
2023-04-07T13:50:38.510Z,12.26
2023-04-07T13:53:04.931Z,12.19
2023-04-07T13:55:31.334Z,12.15
2023-04-07T13:57:57.726Z,12.13
2023-04-07T14:00:24.243Z,12.17
2023-04-07T14:02:50.820Z,12.16
2023-04-07T14:05:17.419Z,12.18
2023-04-07T14:07:43.851Z,12.17
2023-04-07T14:10:10.781Z,12.12
2023-04-07T14:12:37.370Z,12.12
2023-04-07T14:15:05.527Z,12.08
2023-04-07T14:17:32.003Z,12.12
2023-04-07T14:19:58.491Z,12.17
2023-04-07T14:22:24.935Z,12.23
2023-04-07T14:24:51.427Z,12.31
2023-04-07T14:27:20.908Z,12.37
2023-04-07T14:29:48.426Z,12.48
2023-04-07T14:32:15.838Z,12.50
2023-04-07T14:34:42.355Z,12.61
2023-04-07T14:37:08.856Z,12.74
2023-04-07T14:39:35.631Z,12.76
2023-04-07T14:42:02.182Z,12.85
2023-04-07T14:44:29.109Z,12.87
2023-04-07T14:46:56.152Z,12.97
2023-04-07T14:49:22.686Z,12.99
2023-04-07T14:51:49.321Z,13.05
2023-04-07T14:54:15.748Z,13.09
2023-04-07T14:56:42.186Z,13.29
2023-04-07T14:59:08.646Z,13.52
2023-04-07T15:01:35.421Z,13.66
2023-04-07T15:04:02.014Z,13.80
2023-04-07T15:06:28.530Z,13.87
2023-04-07T15:08:55.190Z,13.97
2023-04-07T15:11:21.840Z,14.08
2023-04-07T15:13:48.521Z,14.23
2023-04-07T15:16:16.089Z,14.08
2023-04-07T15:18:45.326Z,13.94
2023-04-07T15:21:12.792Z,13.93
2023-04-07T15:23:40.462Z,13.86
2023-04-07T15:26:08.073Z,13.77
2023-04-07T15:28:34.659Z,13.81
2023-04-07T15:31:01.458Z,14.05
2023-04-07T15:33:28.330Z,14.62
2023-04-07T15:35:55.203Z,15.26
2023-04-07T15:38:21.637Z,15.55
2023-04-07T15:40:48.051Z,16.25
2023-04-07T15:43:14.584Z,16.45
2023-04-07T15:45:44.751Z,16.84
2023-04-07T15:48:12.244Z,16.58
2023-04-07T15:50:38.805Z,16.19
2023-04-07T15:53:05.843Z,15.82
2023-04-07T15:55:33.607Z,15.44
2023-04-07T15:58:01.015Z,15.03
2023-04-07T16:00:28.838Z,14.63
2023-04-07T16:02:55.824Z,14.32
2023-04-07T16:05:22.450Z,14.09
2023-04-07T16:07:49.079Z,13.90
2023-04-07T16:10:19.673Z,13.65
2023-04-07T16:12:47.162Z,13.42
2023-04-07T16:15:18.472Z,13.30
2023-04-07T16:17:49.598Z,13.17
2023-04-07T16:20:16.353Z,13.05
2023-04-07T16:22:45.591Z,12.95
2023-04-07T16:25:12.969Z,12.84
2023-04-07T16:27:39.489Z,12.75
2023-04-07T16:30:06.517Z,12.71
2023-04-07T16:32:34.417Z,12.64
2023-04-07T16:35:01.168Z,12.59
2023-04-07T16:37:27.887Z,12.50
2023-04-07T16:39:56.355Z,12.48
2023-04-07T16:42:25.830Z,12.41
2023-04-07T16:44:52.255Z,12.38
2023-04-07T16:47:18.753Z,12.34
2023-04-07T16:49:45.369Z,12.31
2023-04-07T16:52:11.985Z,12.26
2023-04-07T16:54:38.482Z,12.19
2023-04-07T16:57:04.882Z,12.14
2023-04-07T16:59:32.171Z,12.07
2023-04-07T17:01:58.749Z,12.01
2023-04-07T17:04:25.620Z,11.97
2023-04-07T17:06:52.078Z,11.93
2023-04-07T17:09:19.868Z,11.89
2023-04-07T17:11:46.287Z,11.82
2023-04-07T17:14:12.723Z,11.75
2023-04-07T17:16:39.153Z,11.71
2023-04-07T17:19:05.600Z,11.65
2023-04-07T17:21:32.163Z,11.61
2023-04-07T17:23:58.584Z,11.57
2023-04-07T17:26:25.401Z,11.54
2023-04-07T17:28:51.816Z,11.53
2023-04-07T17:31:18.315Z,11.49
2023-04-07T17:33:44.768Z,11.45
2023-04-07T17:36:11.247Z,11.42
2023-04-07T17:38:37.709Z,11.43
2023-04-07T17:41:04.589Z,11.40
2023-04-07T17:43:31.668Z,11.36
2023-04-07T17:45:58.138Z,11.31
2023-04-07T17:48:24.940Z,11.24
2023-04-07T17:50:51.321Z,11.22
2023-04-07T17:53:17.895Z,11.19
2023-04-07T17:55:44.332Z,11.17
2023-04-07T17:58:11.582Z,11.17
2023-04-07T18:00:38.091Z,11.17
2023-04-07T18:03:04.962Z,11.15
2023-04-07T18:05:32.028Z,11.16
2023-04-07T18:07:58.594Z,11.17
2023-04-07T18:10:25.933Z,11.15
2023-04-07T18:12:52.407Z,11.16
2023-04-07T18:15:18.998Z,11.18
2023-04-07T18:17:47.423Z,11.17
2023-04-07T18:20:14.009Z,11.18
2023-04-07T18:22:40.912Z,11.17
2023-04-07T18:25:07.679Z,11.14
2023-04-07T18:27:34.084Z,11.12
2023-04-07T18:30:00.822Z,11.07
2023-04-07T18:32:27.274Z,11.06
2023-04-07T18:34:54.797Z,11.02
2023-04-07T18:37:22.128Z,11.00
2023-04-07T18:39:48.556Z,10.99
2023-04-07T18:42:15.099Z,10.97
2023-04-07T18:44:41.556Z,10.96
2023-04-07T18:47:08.024Z,10.95
2023-04-07T18:49:34.792Z,10.95
2023-04-07T18:52:01.248Z,10.95
2023-04-07T18:54:28.500Z,10.93
2023-04-07T18:56:54.960Z,10.93
2023-04-07T18:59:21.347Z,10.94
2023-04-07T19:01:47.812Z,10.92
2023-04-07T19:04:15.582Z,10.92
2023-04-07T19:06:42.099Z,10.92
2023-04-07T19:09:08.568Z,10.92
2023-04-07T19:11:35.978Z,10.90
2023-04-07T19:14:03.353Z,10.90
2023-04-07T19:16:29.821Z,10.89
2023-04-07T19:18:56.281Z,10.88
2023-04-07T19:21:22.768Z,10.88
2023-04-07T19:23:49.347Z,10.89
2023-04-07T19:26:16.543Z,10.87
2023-04-07T19:28:44.172Z,10.87
2023-04-07T19:31:11.008Z,10.87
2023-04-07T19:33:37.553Z,10.85
2023-04-07T19:36:04.554Z,10.85
2023-04-07T19:38:31.652Z,10.85
2023-04-07T19:40:58.078Z,10.84
2023-04-07T19:43:24.504Z,10.83
2023-04-07T19:45:50.984Z,10.81
2023-04-07T19:48:17.615Z,10.79
2023-04-07T19:50:47.138Z,10.78
2023-04-07T19:53:16.715Z,10.77
2023-04-07T19:55:44.080Z,10.74
2023-04-07T19:58:10.935Z,10.70
2023-04-07T20:00:38.761Z,10.68
2023-04-07T20:03:05.931Z,10.70
2023-04-07T20:05:34.028Z,10.71
2023-04-07T20:08:03.768Z,10.71
2023-04-07T20:10:30.361Z,10.71
2023-04-07T20:12:56.791Z,10.72
2023-04-07T20:15:24.840Z,10.70
2023-04-07T20:17:51.665Z,10.68
2023-04-07T20:20:19.093Z,10.68
2023-04-07T20:22:45.663Z,10.67
2023-04-07T20:25:13.167Z,10.65
2023-04-07T20:27:39.795Z,10.64
2023-04-07T20:30:06.987Z,10.63
2023-04-07T20:32:33.532Z,10.63
2023-04-07T20:35:00.030Z,10.61
2023-04-07T20:37:27.760Z,10.61
2023-04-07T20:39:55.557Z,10.61
2023-04-07T20:42:22.230Z,10.60
2023-04-07T20:44:48.865Z,10.59
2023-04-07T20:47:15.246Z,10.60
2023-04-07T20:49:43.474Z,10.56
2023-04-07T20:52:09.903Z,10.53
2023-04-07T20:54:36.340Z,10.49
2023-04-07T20:57:02.771Z,10.50
2023-04-07T20:59:30.178Z,10.47
2023-04-07T21:01:56.825Z,10.46
2023-04-07T21:04:24.498Z,10.45
2023-04-07T21:06:51.132Z,10.44
2023-04-07T21:09:17.882Z,10.41
2023-04-07T21:11:44.378Z,10.40
2023-04-07T21:14:11.438Z,10.40
2023-04-07T21:16:38.018Z,10.39
2023-04-07T21:19:04.692Z,10.39
2023-04-07T21:21:31.596Z,10.37
2023-04-07T21:23:57.969Z,10.36
2023-04-07T21:26:24.419Z,10.36
2023-04-07T21:28:51.872Z,10.35
2023-04-07T21:31:24.518Z,10.33
2023-04-07T21:33:51.504Z,10.35
2023-04-07T21:36:17.948Z,10.31
2023-04-07T21:38:44.368Z,10.32
2023-04-07T21:41:10.945Z,10.30
2023-04-07T21:43:37.350Z,10.31
2023-04-07T21:46:03.877Z,10.32
2023-04-07T21:48:30.444Z,10.29
2023-04-07T21:50:57.251Z,10.31
2023-04-07T21:53:23.649Z,10.31
2023-04-07T21:55:50.346Z,10.33
2023-04-07T21:58:16.766Z,10.33
2023-04-07T22:00:43.206Z,10.34
2023-04-07T22:03:09.967Z,10.35
2023-04-07T22:05:36.597Z,10.33
2023-04-07T22:08:03.230Z,10.33
2023-04-07T22:10:29.872Z,10.34
2023-04-07T22:12:56.326Z,10.33
2023-04-07T22:15:22.840Z,10.35
2023-04-07T22:17:49.418Z,10.34
2023-04-07T22:20:16.119Z,10.36
2023-04-07T22:22:43.907Z,10.35
2023-04-07T22:25:10.416Z,10.36
2023-04-07T22:27:36.801Z,10.36
2023-04-07T22:30:03.825Z,10.40
2023-04-07T22:32:30.491Z,10.39
2023-04-07T22:34:57.798Z,10.40
2023-04-07T22:37:24.220Z,10.42
2023-04-07T22:39:50.889Z,10.43
2023-04-07T22:42:17.294Z,10.45
2023-04-07T22:44:43.757Z,10.46
2023-04-07T22:47:10.344Z,10.46
2023-04-07T22:49:36.803Z,10.46
2023-04-07T22:52:03.356Z,10.45
2023-04-07T22:54:29.788Z,10.46
2023-04-07T22:56:56.800Z,10.41
2023-04-07T22:59:23.241Z,10.38
2023-04-07T23:01:49.822Z,10.34
2023-04-07T23:04:16.931Z,10.31
2023-04-07T23:06:43.592Z,10.30
2023-04-07T23:09:10.352Z,10.29
2023-04-07T23:11:36.775Z,10.29
2023-04-07T23:14:06.195Z,10.29
2023-04-07T23:16:33.765Z,10.27
2023-04-07T23:19:01.217Z,10.26
2023-04-07T23:21:30.111Z,10.25
2023-04-07T23:23:57.826Z,10.27
2023-04-07T23:26:24.355Z,10.25
2023-04-07T23:28:51.299Z,10.27
2023-04-07T23:31:17.999Z,10.25
2023-04-07T23:33:44.481Z,10.27
2023-04-07T23:36:10.917Z,10.25
2023-04-07T23:38:39.494Z,10.27
2023-04-07T23:41:06.694Z,10.29
2023-04-07T23:43:33.529Z,10.30
2023-04-07T23:46:00.402Z,10.31
2023-04-07T23:48:27.203Z,10.33
2023-04-07T23:50:53.983Z,10.35
2023-04-07T23:53:20.394Z,10.36
2023-04-07T23:55:48.339Z,10.38
2023-04-07T23:58:14.794Z,10.39
